Time;durP1;ratioP1;P1;durP2;ratioP2;P2;SDS_P1;SDS_P2;PMS_P1;PMS_P2;Temp;Humidity;BMP_temperature;BMP_pressure;BME280_temperature;BME280_humidity;BME280_pressure;Samples;Min_cycle;Max_cycle;Signal;HPM_P1;HPM_P2
2023/08/04 00:01:33;;;;;;;3.10;1.70;;;;;;;16.71;70.24;97917.75;435245;1254;108530;-42
2023/08/04 00:11:40;;;;;;;8.20;2.60;;;;;;;16.64;70.63;97923.39;435332;1252;98545;-43
2023/08/04 00:21:48;;;;;;;5.70;1.80;;;;;;;16.67;70.82;97919.20;435429;1254;107920;-42
2023/08/04 00:31:55;;;;;;;3.10;2.00;;;;;;;16.60;71.04;97915.73;435172;1249;467147;-42
2023/08/04 00:42:02;;;;;;;4.20;1.50;;;;;;;16.58;71.30;97927.56;435494;1250;109806;-42
2023/08/04 00:52:10;;;;;;;5.40;1.80;;;;;;;16.59;71.11;97937.74;435239;1252;108376;-42
2023/08/04 01:02:16;;;;;;;3.20;1.30;;;;;;;16.67;71.61;97951.38;435437;1250;96650;-41
2023/08/04 01:12:32;;;;;;;5.10;2.10;;;;;;;16.83;71.52;97941.91;435293;1254;109741;-43
2023/08/04 01:22:39;;;;;;;5.10;1.80;;;;;;;16.73;71.55;97936.10;435393;1250;107320;-42
2023/08/04 01:32:44;;;;;;;4.10;1.70;;;;;;;16.53;71.47;97938.19;435371;1249;97890;-41
2023/08/04 01:42:52;;;;;;;2.70;1.50;;;;;;;16.30;71.75;97932.83;436677;1251;109343;-41
2023/08/04 01:53:00;;;;;;;7.20;1.70;;;;;;;16.34;72.07;97918.96;436128;1247;97871;-42
2023/08/04 02:13:13;;;;;;;6.00;1.90;;;;;;;16.37;72.60;97954.97;436213;1251;107846;-42
2023/08/04 02:23:20;;;;;;;4.20;1.40;;;;;;;16.32;72.43;97971.71;436544;1251;97752;-42
2023/08/04 02:33:27;;;;;;;4.90;2.10;;;;;;;16.33;72.73;97983.55;436342;1251;109602;-42
2023/08/04 02:43:34;;;;;;;5.70;1.80;;;;;;;16.37;72.95;97986.23;436351;1251;107905;-42
2023/08/04 02:53:40;;;;;;;4.30;2.20;;;;;;;16.36;73.19;97978.95;436293;1247;97869;-41
2023/08/04 03:03:47;;;;;;;3.40;1.70;;;;;;;16.29;73.18;97979.57;437037;1247;107573;-42
2023/08/04 03:13:54;;;;;;;3.90;1.40;;;;;;;16.25;73.28;97978.08;436333;1247;97883;-42
2023/08/04 03:24:01;;;;;;;3.90;2.10;;;;;;;16.21;73.63;97984.47;436212;1251;110515;-42
2023/08/04 03:44:14;;;;;;;11.80;2.60;;;;;;;16.28;73.68;98011.71;436348;1247;118439;-43
2023/08/04 03:54:21;;;;;;;2.70;1.50;;;;;;;16.11;73.84;98019.17;436319;1247;107503;-42
2023/08/04 04:04:27;;;;;;;6.70;2.30;;;;;;;16.07;74.07;98024.80;436425;1248;97926;-42
2023/08/04 04:24:40;;;;;;;9.00;2.10;;;;;;;16.90;74.72;98030.17;436211;1251;108160;-41
2023/08/04 04:34:46;;;;;;;8.20;2.30;;;;;;;18.10;74.33;98039.87;436466;1251;97849;-42
2023/08/04 04:44:55;;;;;;;8.30;2.40;;;;;;;18.33;73.36;98058.67;436560;1251;109547;-42
2023/08/04 04:55:03;;;;;;;6.90;2.30;;;;;;;17.88;73.11;98072.77;436966;1247;107513;-42
2023/08/04 05:05:11;;;;;;;5.00;2.40;;;;;;;17.75;73.13;98073.75;437103;1247;96673;-41
2023/08/04 05:25:24;;;;;;;10.10;2.70;;;;;;;17.66;73.37;98098.19;437063;1249;97896;-41
2023/08/04 05:35:31;;;;;;;7.10;1.70;;;;;;;17.59;73.34;98099.61;437333;1247;110589;-42
2023/08/04 05:45:43;;;;;;;6.00;2.10;;;;;;;17.71;73.39;98098.13;436854;1267;107816;-42
2023/08/04 05:55:51;;;;;;;12.50;1.90;;;;;;;17.99;73.37;98093.20;436354;1251;97233;-42
2023/08/04 06:05:56;;;;;;;4.50;1.80;;;;;;;18.24;73.17;98089.91;436410;1247;110820;-41
2023/08/04 06:16:03;;;;;;;7.30;2.50;;;;;;;18.52;73.15;98089.78;436315;1251;108088;-43
2023/08/04 06:26:09;;;;;;;9.20;2.60;;;;;;;19.15;72.63;98088.73;436347;1253;98583;-42
2023/08/04 06:36:17;;;;;;;12.70;2.20;;;;;;;19.49;72.14;98095.89;436410;1251;110351;-42
2023/08/04 06:46:24;;;;;;;6.90;1.70;;;;;;;19.87;71.87;98096.70;436365;1247;107852;-41
2023/08/04 06:56:31;;;;;;;3.20;1.80;;;;;;;20.78;71.51;98107.27;436312;1251;97861;-42
2023/08/04 07:06:37;;;;;;;7.60;2.30;;;;;;;21.55;70.34;98118.86;436450;1251;111641;-42
2023/08/04 07:26:52;;;;;;;6.60;1.30;;;;;;;22.84;68.23;98139.90;436440;1251;97883;-43
2023/08/04 07:36:58;;;;;;;;;;;;;;;24.14;67.26;98147.17;436401;1251;111552;-41
2023/08/04 07:47:05;;;;;;;1.50;0.80;;;;;;;25.66;65.03;98158.98;436331;1247;108282;-41
2023/08/04 07:57:12;;;;;;;2.00;0.60;;;;;;;25.98;61.98;98159.14;436359;1251;97346;-41
2023/08/04 08:07:19;;;;;;;1.00;0.70;;;;;;;25.83;60.22;98162.55;436393;1251;108094;-41
2023/08/04 08:17:40;;;;;;;18.90;1.60;;;;;;;25.13;59.52;98171.90;436521;1251;97659;-42
2023/08/04 08:27:48;;;;;;;1.90;0.80;;;;;;;24.67;59.33;98181.14;436453;1248;112106;-41
2023/08/04 08:37:55;;;;;;;0.90;0.80;;;;;;;24.65;59.26;98187.15;436321;1251;108107;-42
2023/08/04 08:48:02;;;;;;;;;;;;;;;24.90;58.33;98192.44;436525;1251;97447;-41
2023/08/04 08:58:08;;;;;;;;;;;;;;;25.00;57.90;98195.88;436487;1251;110814;-41
2023/08/04 09:18:27;;;;;;;0.50;0.50;;;;;;;25.38;56.33;98194.46;436364;1247;97906;-41
2023/08/04 09:28:34;;;;;;;3.70;0.70;;;;;;;25.60;55.27;98200.05;436621;1251;109832;-40
2023/08/04 09:38:42;;;;;;;1.30;0.50;;;;;;;25.83;54.47;98199.05;436465;1252;108621;-41
2023/08/04 09:48:47;;;;;;;1.40;0.60;;;;;;;26.43;52.71;98195.45;436433;1251;97867;-41
2023/08/04 09:58:54;;;;;;;1.20;0.60;;;;;;;26.49;52.55;98203.38;436434;1252;110048;-42
2023/08/04 10:09:00;;;;;;;1.90;0.60;;;;;;;26.63;52.01;98202.15;436480;1248;108940;-41
2023/08/04 10:19:05;;;;;;;1.40;0.40;;;;;;;26.92;51.05;98197.75;436422;1248;96559;-41
2023/08/04 10:29:11;;;;;;;2.10;0.60;;;;;;;27.56;50.71;98197.50;436500;1251;110728;-42
2023/08/04 10:39:26;;;;;;;0.60;0.50;;;;;;;27.56;49.32;98200.21;436399;1251;109347;-42
2023/08/04 10:59:42;;;;;;;1.40;0.40;;;;;;;27.53;48.34;98195.73;436503;1252;110086;-43
2023/08/04 11:09:48;;;;;;;4.60;0.70;;;;;;;27.57;47.83;98189.86;436502;1252;108245;-41
2023/08/04 11:19:55;;;;;;;2.10;0.50;;;;;;;27.39;47.09;98190.42;436488;1252;98108;-42
2023/08/04 11:40:18;;;;;;;0.60;0.60;;;;;;;27.52;45.98;98202.78;436484;1253;107358;-41
2023/08/04 12:10:38;;;;;;;2.70;0.70;;;;;;;26.65;46.08;98213.44;436283;1252;108711;-41
2023/08/04 12:20:43;;;;;;;12.70;0.90;;;;;;;26.65;46.57;98209.80;436450;1252;97883;-41
2023/08/04 12:30:48;;;;;;;6.40;1.20;;;;;;;26.78;46.41;98203.80;436080;1252;379082;-42
2023/08/04 12:41:16;;;;;;;1.60;0.60;;;;;;;26.95;46.41;98194.50;436429;1248;108786;-42
2023/08/04 12:51:22;;;;;;;0.90;0.60;;;;;;;26.93;46.28;98207.84;436327;1253;97480;-41
2023/08/04 13:01:28;;;;;;;1.10;0.40;;;;;;;26.98;46.03;98211.46;436444;1252;109187;-42
2023/08/04 13:11:34;;;;;;;3.00;0.70;;;;;;;27.16;45.91;98210.86;436435;1251;107651;-42
2023/08/04 13:31:45;;;;;;;5.20;1.00;;;;;;;26.97;45.42;98228.50;436330;1258;110515;-42
2023/08/04 13:41:54;;;;;;;1.80;0.80;;;;;;;27.01;45.93;98227.77;436551;1250;108903;-42
2023/08/04 13:52:01;;;;;;;4.30;0.70;;;;;;;26.98;45.77;98244.89;436559;1252;97877;-41
2023/08/04 14:02:09;;;;;;;3.40;0.80;;;;;;;26.91;45.96;98252.83;436373;1261;110709;-44
2023/08/04 14:12:16;;;;;;;2.20;0.90;;;;;;;26.79;46.18;98262.41;436278;1252;107557;-41
2023/08/04 14:22:23;;;;;;;1.40;0.80;;;;;;;26.72;46.38;98262.83;436366;1250;96637;-41
2023/08/04 14:32:29;;;;;;;3.00;0.80;;;;;;;26.59;46.54;98261.85;436392;1252;109932;-42
2023/08/04 14:42:37;;;;;;;1.70;0.80;;;;;;;26.54;46.82;98270.61;436412;1261;109004;-41
2023/08/04 15:02:47;;;;;;;2.40;0.90;;;;;;;26.55;46.91;98278.15;436336;1253;110118;-42
2023/08/04 15:12:54;;;;;;;2.50;0.50;;;;;;;26.26;46.60;98265.48;436519;1250;108727;-41
2023/08/04 15:23:02;;;;;;;1.50;0.60;;;;;;;26.03;46.90;98261.48;436421;1261;97832;-42
2023/08/04 15:33:09;;;;;;;2.00;0.80;;;;;;;25.86;46.96;98241.04;436448;1253;110108;-42
2023/08/04 15:43:19;;;;;;;2.40;1.20;;;;;;;25.49;47.25;98230.31;436404;1253;108592;-41
2023/08/04 16:23:44;;;;;;;5.60;2.30;;;;;;;24.19;50.03;98251.23;436559;1247;96705;-41
2023/08/04 16:33:54;;;;;;;9.40;2.50;;;;;;;23.95;50.91;98260.86;436171;1261;109896;-42
2023/08/04 16:43:59;;;;;;;9.80;3.10;;;;;;;23.66;51.90;98249.31;436813;1253;108693;-41
2023/08/04 16:54:05;;;;;;;5.40;3.60;;;;;;;23.49;52.98;98244.95;437429;1253;96654;-41
2023/08/04 17:04:08;;;;;;;10.40;3.90;;;;;;;23.30;53.76;98259.04;437264;1254;98749;-41
2023/08/04 18:04:44;;;;;;;12.00;6.40;;;;;;;22.09;58.46;98286.52;437331;1252;110004;-42
2023/08/04 18:14:51;;;;;;;17.50;7.60;;;;;;;21.96;59.36;98292.10;437217;1251;108341;-42
2023/08/04 18:55:19;;;;;;;21.50;7.80;;;;;;;21.64;61.53;98318.30;437152;1251;96670;-41
2023/08/04 19:05:26;;;;;;;13.90;8.20;;;;;;;21.48;62.19;98319.13;437048;1252;110770;-46
2023/08/04 19:35:45;;;;;;;14.80;9.10;;;;;;;21.16;64.15;98310.33;436727;1251;109580;-41
2023/08/04 19:45:58;;;;;;;15.60;8.70;;;;;;;21.09;64.75;98310.45;436820;1251;108314;-40
2023/08/04 20:06:15;;;;;;;17.30;8.60;;;;;;;21.09;65.88;98312.10;436828;1248;111600;-42
2023/08/04 20:16:24;;;;;;;18.90;10.20;;;;;;;20.94;66.54;98315.96;436703;1248;107097;-43
2023/08/04 20:26:31;;;;;;;15.30;8.80;;;;;;;20.86;67.22;98327.60;436589;1248;97572;-42
2023/08/04 20:36:37;;;;;;;16.40;8.00;;;;;;;20.76;67.91;98317.48;436831;1248;108264;-42
2023/08/04 21:06:57;;;;;;;19.00;9.90;;;;;;;20.51;69.18;98308.65;436597;1251;108692;-43
2023/08/04 21:17:05;;;;;;;17.60;9.80;;;;;;;20.45;69.73;98316.48;436684;1251;98100;-42
2023/08/04 21:27:12;;;;;;;22.70;10.80;;;;;;;20.44;70.04;98319.27;436657;1247;107335;-41
2023/08/04 21:37:19;;;;;;;24.50;11.10;;;;;;;20.30;70.64;98324.00;436607;1251;97977;-41
2023/08/04 21:47:26;;;;;;;17.20;10.60;;;;;;;20.23;70.92;98343.30;437178;1251;109610;-41
2023/08/04 21:57:33;;;;;;;17.10;9.40;;;;;;;20.18;71.12;98338.90;436868;1251;109338;-40
2023/08/04 22:17:44;;;;;;;22.20;10.60;;;;;;;19.98;71.56;98343.91;436886;1251;108534;-42
2023/08/04 22:27:52;;;;;;;21.80;11.70;;;;;;;19.97;71.97;98359.77;437049;1247;97857;-41
2023/08/04 22:37:57;;;;;;;21.30;11.60;;;;;;;19.88;72.19;98352.91;437077;1247;109562;-41
2023/08/04 22:48:03;;;;;;;21.30;11.40;;;;;;;19.79;72.47;98333.16;436987;1251;108672;-41
2023/08/04 22:58:10;;;;;;;19.40;10.40;;;;;;;19.79;72.71;98315.03;436897;1247;97873;-41
2023/08/04 23:08:17;;;;;;;16.60;11.30;;;;;;;19.83;72.85;98313.85;436966;1251;110318;-41
2023/08/04 23:18:24;;;;;;;20.50;13.30;;;;;;;19.83;73.00;98304.63;437068;1248;107717;-42
2023/08/04 23:28:32;;;;;;;23.10;10.70;;;;;;;19.76;73.10;98289.91;436730;1251;97505;-41
2023/08/04 23:38:39;;;;;;;13.50;10.60;;;;;;;19.77;73.42;98288.23;436535;1251;109471;-42
2023/08/04 23:48:46;;;;;;;18.40;11.70;;;;;;;19.70;73.29;98278.02;436566;1247;97345;-41
2023/08/04 23:58:53;;;;;;;18.20;11.10;;;;;;;19.56;73.62;98263.09;436601;1253;110454;-41
